createdAt,value
2019-02-15T00:00:56.549Z,21.8
2019-02-15T00:10:55.755Z,21.7
2019-02-15T00:20:54.961Z,21.7
2019-02-15T00:30:54.166Z,21.7
2019-02-15T00:40:53.371Z,21.7
2019-02-15T00:50:52.577Z,21.6
2019-02-15T01:00:51.843Z,21.6
2019-02-15T01:10:50.987Z,21.6
2019-02-15T01:24:57.816Z,21.6
2019-02-15T01:34:57.021Z,21.6
2019-02-15T01:44:56.229Z,21.6
2019-02-15T01:54:55.431Z,21.6
2019-02-15T02:04:54.637Z,21.6
2019-02-15T02:14:53.840Z,21.6
2019-02-15T02:24:53.089Z,21.6
2019-02-15T02:34:52.379Z,21.6
2019-02-15T02:44:51.665Z,21.6
2019-02-15T02:54:50.951Z,21.5
2019-02-15T03:04:50.242Z,21.5
2019-02-15T03:14:49.534Z,21.5
2019-02-15T03:24:48.735Z,21.5
2019-02-15T03:33:11.405Z,21.5
2019-02-15T03:43:10.615Z,21.6
2019-02-15T03:53:09.826Z,21.6
2019-02-15T04:03:09.035Z,21.6
2019-02-15T04:13:08.246Z,21.5
2019-02-15T04:23:07.455Z,21.5
2019-02-15T04:33:06.713Z,21.5
2019-02-15T04:43:06.001Z,21.5
2019-02-15T04:53:05.289Z,21.5
2019-02-15T05:03:04.578Z,21.5
2019-02-15T05:13:03.867Z,21.5
2019-02-15T05:23:03.212Z,21.6
2019-02-15T05:33:02.371Z,21.6
2019-02-15T05:43:01.589Z,21.6
2019-02-15T05:53:00.792Z,21.8
2019-02-15T06:01:30.616Z,21.9
2019-02-15T06:11:29.828Z,21.9
2019-02-15T06:21:29.040Z,21.9
2019-02-15T06:31:28.251Z,21.8
2019-02-15T06:41:27.459Z,21.8
2019-02-15T06:51:26.667Z,21.8
2019-02-15T07:01:25.927Z,21.9
2019-02-15T07:11:25.216Z,21.8
2019-02-15T07:21:24.516Z,21.7
2019-02-15T07:31:23.798Z,21.7
2019-02-15T07:41:23.089Z,21.8
2019-02-15T07:51:22.380Z,22
2019-02-15T08:01:21.588Z,22.2
2019-02-15T08:11:20.804Z,22.3
2019-02-15T08:21:20.000Z,22.2
2019-02-15T08:31:19.208Z,22.2
2019-02-15T08:41:18.415Z,22.2
2019-02-15T08:51:17.621Z,22.1
2019-02-15T09:02:46.614Z,22.2
2019-02-15T09:12:45.820Z,22.1
2019-02-15T09:22:45.028Z,22
2019-02-15T09:32:44.234Z,22
2019-02-15T09:42:43.439Z,22.1
2019-02-15T09:52:42.645Z,22.1
2019-02-15T10:02:41.898Z,22
2019-02-15T10:12:41.184Z,22
2019-02-15T10:22:40.478Z,22.1
2019-02-15T10:32:39.773Z,22.1
2019-02-15T10:42:39.062Z,21.9
2019-02-15T10:52:38.354Z,21.9
2019-02-15T11:02:37.572Z,21.9
2019-02-15T11:12:36.773Z,22.1
2019-02-15T11:22:35.985Z,22.4
2019-02-15T11:32:35.247Z,22.5
2019-02-15T11:42:34.407Z,22.5
2019-02-15T11:52:33.620Z,22.3
2019-02-15T12:02:32.830Z,22.4
2019-02-15T12:12:32.036Z,22.4
2019-02-15T12:19:06.013Z,22.4
2019-02-15T12:29:05.168Z,22.4
2019-02-15T12:39:04.374Z,22.4
2019-02-15T12:49:03.587Z,22.3
2019-02-15T12:59:02.792Z,22.4
2019-02-15T13:09:01.991Z,22.3
2019-02-15T13:19:01.239Z,22.3
2019-02-15T13:29:00.528Z,22.3
2019-02-15T13:38:59.815Z,22.3
2019-02-15T13:48:59.103Z,22.3
2019-02-15T13:58:58.391Z,22.3
2019-02-15T14:08:57.678Z,22.1
2019-02-15T14:18:56.881Z,22.1
2019-02-15T14:28:56.138Z,22.3
2019-02-15T14:38:55.291Z,22.1
2019-02-15T14:48:54.500Z,22.2
2019-02-15T14:58:53.704Z,22.2
2019-02-15T15:08:52.912Z,22.3
2019-02-15T15:18:52.125Z,22.2
2019-02-15T15:28:51.332Z,22.3
2019-02-15T15:38:50.538Z,22.3
2019-02-15T15:48:49.745Z,22.1
2019-02-15T15:58:49.006Z,22.1
2019-02-15T16:08:48.165Z,22.1
2019-02-15T16:18:47.375Z,22.2
2019-02-15T16:28:46.592Z,22.3
2019-02-15T16:38:45.797Z,22.2
2019-02-15T16:48:45.010Z,22.1
2019-02-15T16:58:44.243Z,22.3
2019-02-15T17:08:07.730Z,22.3
2019-02-15T17:18:06.989Z,22.4
2019-02-15T17:28:06.164Z,22.7
2019-02-15T17:38:05.374Z,22.6
2019-02-15T17:48:04.596Z,22.6
2019-02-15T17:58:03.807Z,22.5
2019-02-15T18:08:03.071Z,22.5
2019-02-15T18:18:02.373Z,22.5
2019-02-15T18:28:01.675Z,22.4
2019-02-15T18:38:00.979Z,22.4
2019-02-15T18:51:46.695Z,22.4
2019-02-15T19:01:45.916Z,22.4
2019-02-15T19:11:45.150Z,22.5
2019-02-15T19:21:44.360Z,22.4
2019-02-15T19:31:43.578Z,22.4
2019-02-15T19:41:42.844Z,22.3
2019-02-15T19:51:42.061Z,22.4
2019-02-15T20:01:41.396Z,22.5
2019-02-15T20:11:40.664Z,22.5
2019-02-15T20:21:39.963Z,22.3
2019-02-15T20:31:39.268Z,22.3
2019-02-15T20:41:38.566Z,22.3
2019-02-15T20:51:37.831Z,22.1
2019-02-15T21:01:36.995Z,22.4
2019-02-15T21:11:02.176Z,22.3
2019-02-15T21:21:01.389Z,22.1
2019-02-15T21:31:00.605Z,22.3
2019-02-15T21:40:33.425Z,22.2
2019-02-15T21:50:32.403Z,22.1
2019-02-15T22:00:31.614Z,22.1
2019-02-15T22:10:30.826Z,22
2019-02-15T22:20:30.086Z,21.9
2019-02-15T22:30:29.248Z,21.9
2019-02-15T22:40:28.510Z,21.9
2019-02-15T22:50:35.545Z,21.9
2019-02-15T23:00:27.097Z,21.9
2019-02-15T23:10:26.387Z,21.8
2019-02-15T23:20:25.679Z,21.8
2019-02-15T23:30:24.982Z,21.8
2019-02-15T23:40:24.181Z,21.8
2019-02-15T23:50:23.387Z,21.8
